Aeroporto :
LOGIN :

Iscrizione | Disclaimer

   EN    FR    IT 

 










Sommario :    VFR   VFR Marginale   IFR   IFR Intensivo   IFR Molto Intensivo
Visibilità : 
Base nubi : 
>= 8 km
>= 3000ft
5 / 8 km
1000 / 3000 ft
1500m / 5 km
500 / 1000 ft
800 / 1500m
200 / 500 ft
< 800m
< 200 ft
Simboli :   Temporali  Nebbia  Neve Forte  Precipitazioni Forti  Vento > 20 kt
SIGMETs :   Varie  Temporali  Ghiacco  Turbolenza  Onda orograficha  Ceneri Vulcaniche






- Altitudine del aeroporto : 686 ft


LYKV - Ladevci

ULTIMO METAR :
  • 240900Z VRB01KT 9999 FEW009 SCT035 15/10 Q1005 NOSIG

METARs OBSOLETI :
  • 240830Z VRB01KT 9999 FEW008 SCT027 12/09 Q1005 NOSIG
  • 240800Z VRB01KT 9999 BKN005 11/09 Q1005 BECMG SCT010
  • 240730Z VRB01KT 6000 BKN003 09/07 Q1006 BECMG BKN008
  • 240700Z VRB01KT 1200 R31/P2000N R13/2000N BR OVC003 08/07 Q1006 BECMG 3000 BKN006
  • 240630Z VRB01KT 0500 R31/P2000N R13/1100D FG VV002 08/06 Q1006 NOSIG
  • 240600Z 00000KT 0300 R31/0600N R13/0500N FG VV002 07/06 Q1006 NOSIG
  • 240530Z VRB01KT 0300 R31/1000U R13/0650U FG VV002 07/06 Q1006 NOSIG
  • 240500Z 00000KT 0300 R31/0550N R13/0375N FG VV001 07/05 Q1006 NOSIG
  • 240430Z 00000KT 0300 R31/0550N R13/0400N FG VV002 07/05 Q1005 NOSIG

TAF TAF LYKV
Valido dal 24 a 06 ore il 25 a 06 ore UTC


240500Z 2406/2506 33004KT 0400 FG VV002 TX18/2413Z TN07/2504Z
BECMG 2406/2408 5000 BR BKN005
BECMG 2408/2409 9999 NSW SCT015
TEMPO 2412/2417 23015KT 4000 TSRA SCT033CB SCT040
TEMPO 2500/2506 5000 RA BKN013 BKN025



MetMap, La meteo Aeronautica in un colpo d'occhio ! - Copyright ORBIFLY Dicembre 2007 - Disclaimer

ORBIFLY MET'MAP TEAM :

Programmazione e sviluppo : Alexandra Zaïnal
Concezione : Baudouin d'Aumeries
Supporto tecnico e logistico : Manuel Goepfert
Aiuto : Marc-Olivier Méhu
Aiuto per la traduzione : Arnaldo La Scala




FONTI E CREDITI :

   NOAA